Overview Statistics Trail Chart Weather Telemetry Raw packets
 

This is the latest recevied weather packets stored in our database for station/object EA3CH. If no packets are shown the sender has not sent any weather packets the latest 10 day(s).

<< 24 25 26 27 28 29 30 >>
Time Temp. Humidity Pressure Rain* Wind** Luminosity Snow
1788087604 29.44° C 44% 1019.6 hPa 0 mm - 0 W/m² -
1788086707 28.33° C 38% 1019.4 hPa 0 mm - 0 W/m² -
1788086703 28.89° C 46% 1019.6 hPa 0 mm - 0 W/m² -
1788085804 28.33° C 46% 1019.7 hPa 0 mm - 0 W/m² -
1788084906 28.33° C 37% 1019.6 hPa 0 mm - 0 W/m² -
1788084903 28.33° C 47% 1019.8 hPa 0 mm - 0 W/m² -
1788084004 27.78° C 48% 1019.9 hPa 0 mm - 0 W/m² -
1788083104 27.78° C 48% 1020 hPa 0 mm - 0 W/m² -
1788082204 27.78° C 47% 1020.1 hPa 0 mm - 0 W/m² -
1788081306 27.22° C 40% 1019.9 hPa 0 mm - 0 W/m² -
1788081304 27.22° C 49% 1020.1 hPa 0 mm - 0 W/m² -
1788080404 26.67° C 53% 1020.1 hPa 0 mm - 0 W/m² -
1788079506 25.56° C 45% 1019.9 hPa 0 mm - 0 W/m² -
1788079504 26.11° C 54% 1020.1 hPa 0 mm - 0 W/m² -
1788078606 25.56° C 46% 1019.8 hPa 0 mm - 0 W/m² -
1788078604 25.56° C 54% 1020.1 hPa 0 mm - 0 W/m² -
1788077706 25° C 47% 1019.9 hPa 0 mm - 0 W/m² -
1788077704 25° C 56% 1020 hPa 0 mm - 0 W/m² -
1788076806 24.44° C 49% 1019.8 hPa 0 mm - 0 W/m² -
1788076803 24.44° C 59% 1020 hPa 0 mm - 0 W/m² -
1788075903 22.78° C 63% 1020 hPa 0 mm - 0 W/m² -
1788075004 21.67° C 68% 1019.9 hPa 0 mm - 0 W/m² -
1788074104 20.56° C 69% 1019.8 hPa 0 mm - 0 W/m² -
1788073204 19.44° C 75% 1019.8 hPa 0 mm - 0 W/m² -
1788072303 17.78° C 81% 1019.7 hPa 0 mm - 0 W/m² -

* Rain latest hour (hover to see other rain measurements)
** Current wind speed in m/s (hover to see current wind gust speed)